createdAt,value
2019-04-28T00:01:34.383Z,1.73
2019-04-28T00:04:03.913Z,1.73
2019-04-28T00:06:33.506Z,1.73
2019-04-28T00:09:03.040Z,1.43
2019-04-28T00:11:32.597Z,1.60
2019-04-28T00:14:02.172Z,1.70
2019-04-28T00:16:31.745Z,1.57
2019-04-28T00:19:01.310Z,1.50
2019-04-28T00:21:51.549Z,1.90
2019-04-28T00:24:45.863Z,1.50
2019-04-28T00:27:17.108Z,1.30
2019-04-28T00:29:46.571Z,1.60
2019-04-28T00:32:16.077Z,1.70
2019-04-28T00:34:45.627Z,1.30
2019-04-28T00:37:24.329Z,1.47
2019-04-28T00:39:53.796Z,1.30
2019-04-28T00:42:23.250Z,1.60
2019-04-28T00:44:52.771Z,1.70
2019-04-28T00:47:22.145Z,2.30
2019-04-28T00:49:52.022Z,2.20
2019-04-28T00:52:23.666Z,2.80
2019-04-28T00:54:53.072Z,1.80
2019-04-28T00:57:22.478Z,2.40
2019-04-28T00:59:57.749Z,1.83
2019-04-28T01:02:28.072Z,2.00
2019-04-28T01:04:57.374Z,2.07
2019-04-28T01:07:26.610Z,2.43
2019-04-28T01:09:56.686Z,1.90
2019-04-28T01:12:25.976Z,1.50
2019-04-28T01:14:57.298Z,1.97
2019-04-28T01:17:33.432Z,2.03
2019-04-28T01:20:04.500Z,1.30
2019-04-28T01:22:35.131Z,1.67
2019-04-28T01:25:05.223Z,2.03
2019-04-28T01:27:53.445Z,1.47
2019-04-28T01:30:42.142Z,2.40
2019-04-28T01:33:33.525Z,3.00
2019-04-28T01:36:02.834Z,2.03
2019-04-28T01:38:32.080Z,2.33
2019-04-28T01:41:01.615Z,3.07
2019-04-28T01:43:31.238Z,2.17
2019-04-28T01:46:00.676Z,2.60
2019-04-28T01:48:31.454Z,2.67
2019-04-28T01:51:00.858Z,3.30
2019-04-28T01:53:30.853Z,2.90
2019-04-28T01:56:00.307Z,2.20
2019-04-28T01:58:29.749Z,2.40
2019-04-28T02:00:59.686Z,2.20
2019-04-28T02:03:30.740Z,3.27
2019-04-28T02:06:00.270Z,2.90
2019-04-28T02:08:30.341Z,2.90
2019-04-28T02:11:00.219Z,2.60
2019-04-28T02:13:29.963Z,2.53
2019-04-28T02:16:00.028Z,2.93
2019-04-28T02:18:30.052Z,2.77
2019-04-28T02:21:11.240Z,2.53
2019-04-28T02:23:42.671Z,2.40
2019-04-28T02:26:11.861Z,2.40
2019-04-28T02:28:41.059Z,3.67
2019-04-28T02:31:11.469Z,3.00
2019-04-28T02:33:41.006Z,3.77
2019-04-28T02:36:12.330Z,3.33
2019-04-28T02:38:41.651Z,2.70
2019-04-28T02:41:11.194Z,3.17
2019-04-28T02:43:41.021Z,2.40
2019-04-28T02:46:10.637Z,3.33
2019-04-28T02:48:42.022Z,3.20
2019-04-28T02:51:20.797Z,3.07
2019-04-28T02:53:51.161Z,4.37
2019-04-28T02:56:21.273Z,2.53
2019-04-28T02:58:51.172Z,2.70
2019-04-28T03:01:26.246Z,3.10
2019-04-28T03:04:00.100Z,4.43
2019-04-28T03:06:30.614Z,4.03
2019-04-28T03:09:00.279Z,3.37
2019-04-28T03:11:31.465Z,2.70
2019-04-28T03:14:01.114Z,2.57
2019-04-28T03:16:30.608Z,3.00
2019-04-28T03:19:01.290Z,2.90
2019-04-28T03:21:31.363Z,3.73
2019-04-28T03:24:01.390Z,2.67
2019-04-28T03:26:41.372Z,2.97
2019-04-28T03:29:24.498Z,3.27
2019-04-28T03:32:30.309Z,3.20
2019-04-28T03:34:45.773Z,3.63
2019-04-28T03:37:14.992Z,2.73
2019-04-28T03:39:44.353Z,2.63
2019-04-28T03:42:13.601Z,3.13
2019-04-28T03:44:51.462Z,2.53
2019-04-28T03:47:21.512Z,3.00
2019-04-28T03:49:51.005Z,3.63
2019-04-28T03:52:21.070Z,3.70
2019-04-28T03:54:51.324Z,2.80
2019-04-28T03:57:21.580Z,3.40
2019-04-28T03:59:51.587Z,3.37
2019-04-28T04:02:23.634Z,3.30
2019-04-28T04:04:52.897Z,3.43
2019-04-28T04:07:22.448Z,3.20
2019-04-28T04:10:00.962Z,3.50
2019-04-28T04:12:37.154Z,3.73
2019-04-28T04:15:25.511Z,4.50
2019-04-28T04:18:11.375Z,3.90
2019-04-28T04:20:41.157Z,3.53
2019-04-28T04:23:11.255Z,3.60
2019-04-28T04:25:41.619Z,4.10
2019-04-28T04:28:20.265Z,4.77
2019-04-28T04:30:50.847Z,3.60
2019-04-28T04:33:20.721Z,3.70
2019-04-28T04:35:51.633Z,4.20
2019-04-28T04:38:21.839Z,3.90
2019-04-28T04:40:51.578Z,3.60
2019-04-28T04:43:23.289Z,3.90
2019-04-28T04:45:54.823Z,4.00
2019-04-28T04:48:25.143Z,5.80
2019-04-28T04:50:54.561Z,3.93
2019-04-28T04:53:23.854Z,4.83
2019-04-28T04:55:53.209Z,6.83
2019-04-28T04:58:22.522Z,4.30
2019-04-28T05:01:10.726Z,4.50
2019-04-28T05:03:41.676Z,4.23
2019-04-28T05:06:29.831Z,4.80
2019-04-28T05:08:59.957Z,4.80
2019-04-28T05:11:29.976Z,5.20
2019-04-28T05:13:59.721Z,4.30
2019-04-28T05:16:29.815Z,3.87
2019-04-28T05:19:00.070Z,5.27
2019-04-28T05:21:33.225Z,3.83
2019-04-28T05:24:19.987Z,3.80
2019-04-28T05:26:51.753Z,4.87
2019-04-28T05:29:26.553Z,4.03
2019-04-28T05:31:54.765Z,4.37
2019-04-28T05:34:24.348Z,3.53
2019-04-28T05:36:53.823Z,4.30
2019-04-28T05:39:23.081Z,3.70
2019-04-28T05:41:52.710Z,3.80
2019-04-28T05:44:22.085Z,3.60
2019-04-28T05:46:51.423Z,4.23
2019-04-28T05:49:39.862Z,3.57
2019-04-28T05:52:46.111Z,4.43
2019-04-28T05:55:21.813Z,5.13
2019-04-28T05:58:00.915Z,3.30
2019-04-28T06:00:39.976Z,3.80
2019-04-28T06:03:10.947Z,4.17
2019-04-28T06:05:40.252Z,4.07
2019-04-28T06:08:24.639Z,4.40
2019-04-28T06:10:59.799Z,3.83
2019-04-28T06:13:30.282Z,4.27
2019-04-28T06:16:01.592Z,4.67
2019-04-28T06:18:30.948Z,5.07
2019-04-28T06:21:00.863Z,5.67
2019-04-28T06:23:30.087Z,4.50
2019-04-28T06:25:59.448Z,5.30
2019-04-28T06:28:28.784Z,4.50
2019-04-28T06:30:57.991Z,4.90
2019-04-28T06:33:27.391Z,5.00
2019-04-28T06:35:57.781Z,5.50
2019-04-28T06:38:29.322Z,5.50
2019-04-28T06:40:58.596Z,11.00
2019-04-28T06:43:30.010Z,7.40
2019-04-28T06:45:59.306Z,5.70
2019-04-28T06:48:28.681Z,5.90
2019-04-28T06:50:59.371Z,5.70
2019-04-28T06:53:28.596Z,5.77
2019-04-28T06:55:58.278Z,5.97
2019-04-28T06:58:27.634Z,4.90
2019-04-28T07:00:57.274Z,4.90
2019-04-28T07:03:33.072Z,4.80
2019-04-28T07:06:06.078Z,4.27
2019-04-28T07:08:40.720Z,5.30
2019-04-28T07:11:14.652Z,4.77
2019-04-28T07:13:48.984Z,5.30
2019-04-28T07:16:18.979Z,5.10
2019-04-28T07:18:48.888Z,5.47
2019-04-28T07:21:39.182Z,5.30
2019-04-28T07:24:09.888Z,6.03
2019-04-28T07:26:44.630Z,5.23
2019-04-28T07:29:16.517Z,5.37
2019-04-28T07:31:53.278Z,5.80
2019-04-28T07:34:23.028Z,6.00
2019-04-28T07:36:54.011Z,6.57
2019-04-28T07:39:24.878Z,5.40
2019-04-28T07:41:56.579Z,5.77
2019-04-28T07:44:26.527Z,6.87
2019-04-28T07:46:57.085Z,6.60
2019-04-28T07:49:26.471Z,6.00
2019-04-28T07:52:19.234Z,6.70
2019-04-28T07:54:49.816Z,6.10
2019-04-28T07:57:19.587Z,5.23
2019-04-28T07:59:49.009Z,6.20
2019-04-28T08:02:18.696Z,7.40
2019-04-28T08:04:49.392Z,6.83
2019-04-28T08:07:18.894Z,7.17
2019-04-28T08:09:48.245Z,6.50
2019-04-28T08:12:17.499Z,5.93
2019-04-28T08:14:46.856Z,6.07
2019-04-28T08:17:16.187Z,7.23
2019-04-28T08:19:56.597Z,5.70
2019-04-28T08:22:25.817Z,7.90
2019-04-28T08:25:01.286Z,7.70
2019-04-28T08:27:30.661Z,7.30
2019-04-28T08:30:02.573Z,6.37
2019-04-28T08:32:59.829Z,8.17
2019-04-28T08:35:29.085Z,8.20
2019-04-28T08:37:58.488Z,7.57
2019-04-28T08:40:33.792Z,7.40
2019-04-28T08:43:03.123Z,6.10
2019-04-28T08:45:33.534Z,7.90
2019-04-28T08:48:03.279Z,6.97
2019-04-28T08:50:35.327Z,7.90
2019-04-28T08:53:05.614Z,7.60
2019-04-28T08:55:36.932Z,7.63
2019-04-28T08:58:06.456Z,8.20
2019-04-28T09:00:35.896Z,7.90
2019-04-28T09:03:05.350Z,7.10
2019-04-28T09:05:34.653Z,7.20
2019-04-28T09:08:04.155Z,7.30
2019-04-28T09:10:33.584Z,7.50
2019-04-28T09:13:02.951Z,9.07
2019-04-28T09:15:32.172Z,7.67
2019-04-28T09:18:01.452Z,8.17
2019-04-28T09:20:30.891Z,9.40
2019-04-28T09:23:00.304Z,8.13
2019-04-28T09:25:29.550Z,8.83
2019-04-28T09:27:58.970Z,9.10
2019-04-28T09:30:28.406Z,7.07
2019-04-28T09:32:57.663Z,7.63
2019-04-28T09:35:26.890Z,7.70
2019-04-28T09:37:57.513Z,7.70
2019-04-28T09:40:26.723Z,7.80
2019-04-28T09:43:17.962Z,7.60
2019-04-28T09:45:55.808Z,7.67
2019-04-28T09:48:25.102Z,7.73
2019-04-28T09:50:54.680Z,7.33
2019-04-28T09:53:24.139Z,7.70
2019-04-28T09:55:54.859Z,7.13
2019-04-28T09:58:24.834Z,7.87
2019-04-28T10:00:54.552Z,8.27
2019-04-28T10:03:25.348Z,9.57
2019-04-28T10:05:56.294Z,9.30
2019-04-28T10:08:27.517Z,9.00
2019-04-28T10:10:57.029Z,6.80
2019-04-28T10:13:29.449Z,9.30
2019-04-28T10:15:59.187Z,8.80
2019-04-28T10:18:29.101Z,9.03
2019-04-28T10:20:58.615Z,8.83
2019-04-28T10:23:32.167Z,9.23
2019-04-28T10:26:01.807Z,8.60
2019-04-28T10:28:31.753Z,7.73
2019-04-28T10:31:01.153Z,7.87
2019-04-28T10:33:32.911Z,8.90
2019-04-28T10:36:02.354Z,7.10
2019-04-28T10:38:32.007Z,6.90
2019-04-28T10:41:10.512Z,7.10
2019-04-28T10:43:40.173Z,6.63
2019-04-28T10:46:09.734Z,6.43
2019-04-28T10:48:39.493Z,7.60
2019-04-28T10:51:08.980Z,8.57
2019-04-28T10:53:38.954Z,7.60
2019-04-28T10:56:08.474Z,7.00
2019-04-28T10:58:37.880Z,8.00
2019-04-28T11:01:07.470Z,6.40
2019-04-28T11:03:36.838Z,8.10
2019-04-28T11:06:06.354Z,8.23
2019-04-28T11:08:44.308Z,7.80
2019-04-28T11:11:18.054Z,6.97
2019-04-28T11:13:47.434Z,7.30
2019-04-28T11:16:18.840Z,6.90
2019-04-28T11:18:48.228Z,7.07
2019-04-28T11:21:17.028Z,6.57
2019-04-28T11:23:47.369Z,6.93
2019-04-28T11:26:16.737Z,5.80
2019-04-28T11:28:46.218Z,5.97
2019-04-28T11:31:15.578Z,6.10
2019-04-28T11:34:02.415Z,6.37
2019-04-28T11:36:32.027Z,6.53
2019-04-28T11:39:02.965Z,5.83
2019-04-28T11:41:32.288Z,6.60
2019-04-28T11:44:01.710Z,6.60
2019-04-28T11:46:32.588Z,7.00
2019-04-28T11:49:02.040Z,7.00
2019-04-28T11:51:31.335Z,6.23
2019-04-28T11:54:00.864Z,6.37
2019-04-28T11:56:41.271Z,6.80
2019-04-28T11:59:05.154Z,5.80
2019-04-28T12:01:34.841Z,4.73
2019-04-28T12:04:05.984Z,4.30
2019-04-28T12:06:36.428Z,4.67
2019-04-28T12:09:44.899Z,4.03
2019-04-28T12:12:33.237Z,4.43
2019-04-28T12:15:20.415Z,4.40
2019-04-28T12:18:11.443Z,4.97
2019-04-28T12:20:41.253Z,3.93
2019-04-28T12:23:11.510Z,4.00
2019-04-28T12:25:41.009Z,3.70
2019-04-28T12:28:10.630Z,4.63
2019-04-28T12:30:40.083Z,3.90
2019-04-28T12:33:11.579Z,4.20
2019-04-28T12:35:47.925Z,4.20
2019-04-28T12:38:15.445Z,3.70
2019-04-28T12:40:45.831Z,3.77
2019-04-28T12:43:16.062Z,4.13
2019-04-28T12:45:45.861Z,4.60
2019-04-28T12:48:15.336Z,4.50
2019-04-28T12:50:51.221Z,3.47
2019-04-28T12:53:20.802Z,3.97
2019-04-28T12:55:50.234Z,4.00
2019-04-28T12:58:24.222Z,3.07
2019-04-28T13:04:38.674Z,3.63
2019-04-28T13:07:10.432Z,2.70
2019-04-28T13:09:39.916Z,2.70
2019-04-28T13:12:22.422Z,2.70
2019-04-28T13:14:51.915Z,2.67
2019-04-28T13:17:21.415Z,2.27
2019-04-28T13:19:50.670Z,3.17
2019-04-28T13:22:19.880Z,2.40
2019-04-28T13:24:58.924Z,2.10
2019-04-28T13:27:28.022Z,2.17
2019-04-28T13:29:57.470Z,2.30
2019-04-28T13:32:26.714Z,2.20
2019-04-28T13:34:56.038Z,2.33
2019-04-28T13:37:25.349Z,2.40
2019-04-28T13:40:01.134Z,2.60
2019-04-28T13:42:31.475Z,2.10
2019-04-28T13:45:04.279Z,2.47
2019-04-28T13:47:33.869Z,2.33
2019-04-28T13:50:15.123Z,2.47
2019-04-28T13:52:44.645Z,2.17
2019-04-28T13:55:32.038Z,2.00
2019-04-28T13:58:03.506Z,2.10
2019-04-28T14:00:42.115Z,1.80
2019-04-28T14:03:38.950Z,1.87
2019-04-28T14:06:11.416Z,1.67
2019-04-28T14:08:40.783Z,2.80
2019-04-28T14:11:10.559Z,2.47
2019-04-28T14:13:39.943Z,2.07
2019-04-28T14:16:30.121Z,2.60
2019-04-28T14:18:59.429Z,2.20
2019-04-28T14:21:28.633Z,2.90
2019-04-28T14:23:58.037Z,2.37
2019-04-28T14:26:33.183Z,2.87
2019-04-28T14:29:02.464Z,2.90
2019-04-28T14:31:34.379Z,3.40
2019-04-28T14:34:03.713Z,3.00
2019-04-28T14:36:42.227Z,2.97
2019-04-28T14:39:10.247Z,2.97
2019-04-28T14:41:41.721Z,2.57
2019-04-28T14:44:13.260Z,2.90
2019-04-28T14:46:42.645Z,2.70
2019-04-28T14:49:12.145Z,2.67
2019-04-28T14:51:41.536Z,2.53
2019-04-28T14:54:11.374Z,2.93
2019-04-28T14:56:40.615Z,3.07
2019-04-28T14:59:10.095Z,3.00
2019-04-28T15:02:10.522Z,3.00
2019-04-28T15:05:11.021Z,3.43
2019-04-28T15:07:59.418Z,2.67
2019-04-28T15:10:46.759Z,3.73
2019-04-28T15:13:17.144Z,2.80
2019-04-28T15:15:46.591Z,2.73
2019-04-28T15:18:15.878Z,2.97
2019-04-28T15:20:45.197Z,2.83
2019-04-28T15:23:14.517Z,3.77
2019-04-28T15:25:44.184Z,3.17
2019-04-28T15:28:13.718Z,3.00
2019-04-28T15:30:44.550Z,3.17
2019-04-28T15:33:13.821Z,2.90
2019-04-28T15:35:46.108Z,2.80
2019-04-28T15:38:15.960Z,2.37
2019-04-28T15:40:55.258Z,3.20
2019-04-28T15:43:24.492Z,2.53
2019-04-28T15:45:53.956Z,2.80
2019-04-28T15:48:23.286Z,3.13
2019-04-28T15:50:52.877Z,3.57
2019-04-28T15:53:22.447Z,3.60
2019-04-28T15:56:06.796Z,4.10
2019-04-28T15:58:37.370Z,3.93
2019-04-28T16:01:06.836Z,3.77
2019-04-28T16:03:38.508Z,3.40
2019-04-28T16:06:09.110Z,3.40
2019-04-28T16:08:38.507Z,3.37
2019-04-28T16:11:07.942Z,4.23
2019-04-28T16:13:37.413Z,2.80
2019-04-28T16:16:07.095Z,2.97
2019-04-28T16:18:36.431Z,2.70
2019-04-28T16:21:05.689Z,3.10
2019-04-28T16:23:34.979Z,2.73
2019-04-28T16:26:04.273Z,3.07
2019-04-28T16:28:33.750Z,3.13
2019-04-28T16:31:15.229Z,2.47
2019-04-28T16:33:44.481Z,2.80
2019-04-28T16:36:14.381Z,3.40
2019-04-28T16:38:44.027Z,3.40
2019-04-28T16:41:20.277Z,2.60
2019-04-28T16:43:56.064Z,3.00
2019-04-28T16:46:25.669Z,2.90
2019-04-28T16:48:55.235Z,2.77
2019-04-28T16:51:24.603Z,2.73
2019-04-28T16:53:53.987Z,3.00
2019-04-28T16:56:59.345Z,3.50
2019-04-28T16:59:46.514Z,2.50
2019-04-28T17:02:33.761Z,3.23
2019-04-28T17:05:03.203Z,2.63
2019-04-28T17:07:32.627Z,2.77
2019-04-28T17:10:01.905Z,2.90
2019-04-28T17:12:33.271Z,2.90
2019-04-28T17:15:02.588Z,2.73
2019-04-28T17:17:31.920Z,2.60
2019-04-28T17:20:01.280Z,3.70
2019-04-28T17:22:30.916Z,2.63
2019-04-28T17:25:00.164Z,2.80
2019-04-28T17:27:29.484Z,3.30
2019-04-28T17:29:58.776Z,3.37
2019-04-28T17:32:28.160Z,4.00
2019-04-28T17:34:57.538Z,3.10
2019-04-28T17:37:26.843Z,3.97
2019-04-28T17:39:56.194Z,3.10
2019-04-28T17:42:25.546Z,2.93
2019-04-28T17:44:54.767Z,2.70
2019-04-28T17:47:24.631Z,3.20
2019-04-28T17:49:53.830Z,4.13
2019-04-28T17:52:23.110Z,3.17
2019-04-28T17:54:53.474Z,3.30
2019-04-28T17:57:22.720Z,3.33
2019-04-28T17:59:53.940Z,3.30
2019-04-28T18:02:42.218Z,3.23
2019-04-28T18:05:24.830Z,4.07
2019-04-28T18:07:59.007Z,3.73
2019-04-28T18:10:28.714Z,4.67
2019-04-28T18:13:00.667Z,3.80
2019-04-28T18:15:37.352Z,3.60
2019-04-28T18:18:11.991Z,3.87
2019-04-28T18:20:41.442Z,3.93
2019-04-28T18:23:10.803Z,4.20
2019-04-28T18:25:40.230Z,4.37
2019-04-28T18:28:09.667Z,4.50
2019-04-28T18:30:42.865Z,4.07
2019-04-28T18:33:20.057Z,5.40
2019-04-28T18:36:18.400Z,5.47
2019-04-28T18:38:59.503Z,6.00
2019-04-28T18:41:57.760Z,7.00
2019-04-28T18:44:27.083Z,6.20
2019-04-28T18:46:57.579Z,5.37
2019-04-28T18:49:27.527Z,4.50
2019-04-28T18:51:58.987Z,5.23
2019-04-28T18:54:28.363Z,5.40
2019-04-28T18:56:57.913Z,5.70
2019-04-28T18:59:27.400Z,6.07
2019-04-28T19:02:06.992Z,5.60
2019-04-28T19:04:38.679Z,6.40
2019-04-28T19:07:09.582Z,5.80
2019-04-28T19:10:00.986Z,4.90
2019-04-28T19:12:48.294Z,5.10
2019-04-28T19:15:51.926Z,5.57
2019-04-28T19:18:27.580Z,5.57
2019-04-28T19:20:56.882Z,5.77
2019-04-28T19:23:26.172Z,5.87
2019-04-28T19:25:56.832Z,6.33
2019-04-28T19:28:26.335Z,6.47
2019-04-28T19:30:56.915Z,6.03
2019-04-28T19:33:26.757Z,6.60
2019-04-28T19:35:59.238Z,7.10
2019-04-28T19:38:29.052Z,6.33
2019-04-28T19:40:58.349Z,6.87
2019-04-28T19:43:27.628Z,7.17
2019-04-28T19:45:58.646Z,6.17
2019-04-28T19:48:28.424Z,5.63
2019-04-28T19:50:57.964Z,7.33
2019-04-28T19:53:27.308Z,5.13
2019-04-28T19:56:12.090Z,7.13
2019-04-28T19:58:46.356Z,6.20
2019-04-28T20:01:22.506Z,7.03
2019-04-28T20:03:52.137Z,6.63
2019-04-28T20:06:21.674Z,5.53
2019-04-28T20:08:51.070Z,6.63
2019-04-28T20:11:20.646Z,8.87
2019-04-28T20:13:50.087Z,7.00
2019-04-28T20:16:19.500Z,7.90
2019-04-28T20:18:51.703Z,7.50
2019-04-28T20:21:21.099Z,7.97
2019-04-28T20:23:53.154Z,7.47
2019-04-28T20:26:22.556Z,6.80
2019-04-28T20:28:51.886Z,7.20
2019-04-28T20:31:21.131Z,7.20
2019-04-28T20:33:50.497Z,7.27
2019-04-28T20:36:41.773Z,6.77
2019-04-28T20:39:20.702Z,7.73
2019-04-28T20:41:50.166Z,7.53
2019-04-28T20:44:19.373Z,6.80
2019-04-28T20:46:48.690Z,7.70
2019-04-28T20:49:18.169Z,7.70
2019-04-28T20:51:52.321Z,7.80
2019-04-28T20:54:21.659Z,7.70
2019-04-28T20:56:50.951Z,8.53
2019-04-28T20:59:21.388Z,8.57
2019-04-28T21:01:50.680Z,8.07
2019-04-28T21:04:20.087Z,8.27
2019-04-28T21:06:49.479Z,7.83
2019-04-28T21:09:18.852Z,7.87
2019-04-28T21:11:48.172Z,8.00
2019-04-28T21:14:20.601Z,7.87
2019-04-28T21:16:48.818Z,7.10
2019-04-28T21:19:18.247Z,8.27
2019-04-28T21:21:47.709Z,7.97
2019-04-28T21:24:17.219Z,6.77
2019-04-28T21:26:46.493Z,8.90
2019-04-28T21:29:19.531Z,8.70
2019-04-28T21:31:51.388Z,9.20
2019-04-28T21:34:20.723Z,7.53
2019-04-28T21:36:50.108Z,7.30
2019-04-28T21:39:19.958Z,7.70
2019-04-28T21:41:49.305Z,8.13
2019-04-28T21:44:34.994Z,6.67
2019-04-28T21:47:12.038Z,8.63
2019-04-28T21:49:43.110Z,8.47
2019-04-28T21:52:14.480Z,8.83
2019-04-28T21:54:43.714Z,8.17
2019-04-28T21:57:13.056Z,7.83
2019-04-28T21:59:44.627Z,8.30
2019-04-28T22:02:14.330Z,7.27
2019-04-28T22:04:46.755Z,8.27
2019-04-28T22:07:14.830Z,8.37
2019-04-28T22:09:47.031Z,7.23
2019-04-28T22:12:16.432Z,8.07
2019-04-28T22:14:47.474Z,8.97
2019-04-28T22:17:16.852Z,8.70
2019-04-28T22:19:49.080Z,9.50
2019-04-28T22:22:18.500Z,8.23
2019-04-28T22:25:12.700Z,8.07
2019-04-28T22:27:42.473Z,8.77
2019-04-28T22:30:11.902Z,9.10
2019-04-28T22:32:42.305Z,9.37
2019-04-28T22:35:11.683Z,9.70
2019-04-28T22:37:40.878Z,8.50
2019-04-28T22:40:11.463Z,8.57
2019-04-28T22:42:42.106Z,8.70
2019-04-28T22:45:12.032Z,8.27
2019-04-28T22:47:41.240Z,8.43
2019-04-28T22:50:46.321Z,7.53
2019-04-28T22:53:19.989Z,7.90
2019-04-28T22:55:56.640Z,8.73
2019-04-28T22:58:35.972Z,8.07
2019-04-28T23:01:17.665Z,8.00
2019-04-28T23:03:58.283Z,8.63
2019-04-28T23:06:27.487Z,8.07
2019-04-28T23:08:56.659Z,8.50
2019-04-28T23:11:25.885Z,8.60
2019-04-28T23:13:55.195Z,8.20
2019-04-28T23:16:24.623Z,8.83
2019-04-28T23:18:54.399Z,8.73
2019-04-28T23:21:48.664Z,7.43
2019-04-28T23:24:18.082Z,8.63
2019-04-28T23:26:48.494Z,7.10
2019-04-28T23:29:17.894Z,8.00
2019-04-28T23:31:59.491Z,7.73
2019-04-28T23:34:28.841Z,8.10
2019-04-28T23:36:59.358Z,7.97
2019-04-28T23:39:36.971Z,7.40
2019-04-28T23:42:21.205Z,8.53
2019-04-28T23:44:57.410Z,7.60
2019-04-28T23:47:28.940Z,8.20
2019-04-28T23:49:58.285Z,8.60
2019-04-28T23:52:40.871Z,7.87
2019-04-28T23:55:10.247Z,7.67
2019-04-28T23:57:39.638Z,8.47
